| time (UTC) | temp C | wind direction | speed KPH | gust KPH | rain 1hr cm | rain 24hr cm | rain mn cm | humidity % | barometer mb |
| 20260509202017 | 31 | 294 | 1.6 | 6.4 | 0.00 | 0.00 | 0.00 | 75 | 1008.0 |
| 20260509201511 | 31 | 0 | 0.0 | 1.6 | 0.00 | 0.00 | 0.00 | 76 | 1008.0 |
| 20260509201009 | 31 | 14 | 1.6 | 4.8 | 0.00 | 0.00 | 0.00 | 72 | 1008.2 |
| 20260509200504 | 31 | 206 | 0.0 | 3.2 | 0.00 | 0.00 | 0.00 | 74 | 1008.1 |
| 20260509200001 | 32 | 206 | 4.8 | 6.4 | 0.00 | 0.00 | 0.00 | 72 | 1008.3 |
| 20260509195456 | 31 | 228 | 3.2 | 6.4 | 0.00 | 0.00 | 0.00 | 76 | 1008.2 |
| 20260509194956 | 31 | 180 | 0.0 | 6.4 | 0.00 | 0.00 | 0.00 | 74 | 1008.3 |
| 20260509194451 | 31 | 114 | 0.0 | 4.8 | 0.00 | 0.00 | 0.00 | 73 | 1008.4 |
| 20260509193948 | 31 | 20 | 1.6 | 4.8 | 0.00 | 0.00 | 0.00 | 75 | 1008.3 |
| 20260509193443 | 30 | 180 | 0.0 | 1.6 | 0.00 | 0.00 | 0.00 | 78 | 1008.3 |
| 20260509192939 | 30 | 228 | 4.8 | 6.4 | 0.00 | 0.00 | 0.00 | 76 | 1008.3 |
| 20260509192436 | 32 | 206 | 0.0 | 6.4 | 0.00 | 0.00 | 0.00 | 72 | 1008.3 |
| 20260509191931 | 30 | 0 | 0.0 | 0.0 | 0.00 | 0.00 | 0.00 | 74 | 1008.4 |
| 20260509191426 | 30 | 151 | 3.2 | 3.2 | 0.00 | 0.00 | 0.00 | 75 | 1008.6 |
| 20260509190923 | 30 | 243 | 0.0 | 4.8 | 0.00 | 0.00 | 0.00 | 76 | 1008.7 |
| 20260509190420 | 30 | 221 | 8.0 | 11.3 | 0.00 | 0.00 | 0.00 | 77 | 1008.8 |
| 20260509185918 | 31 | 254 | 0.0 | 6.4 | 0.00 | 0.00 | 0.00 | 74 | 1008.7 |
| 20260509185415 | 31 | 8 | 0.0 | 4.8 | 0.00 | 0.00 | 0.00 | 75 | 1008.9 |
| 20260509184911 | 30 | 57 | 4.8 | 6.4 | 0.00 | 0.00 | 0.00 | 74 | 1008.8 |
| 20260509184409 | 30 | 208 | 4.8 | 4.8 | 0.00 | 0.00 | 0.00 | 74 | 1008.8 |
| 20260509183905 | 30 | 299 | 3.2 | 9.7 | 0.00 | 0.00 | 0.00 | 73 | 1009.1 |
| 20260509183359 | 30 | 248 | 4.8 | 8.0 | 0.00 | 0.00 | 0.00 | 75 | 1009.3 |
| 20260509182856 | 31 | 221 | 3.2 | 3.2 | 0.00 | 0.00 | 0.00 | 77 | 1009.3 |
| 20260509182353 | 30 | 110 | 4.8 | 4.8 | 0.00 | 0.00 | 0.00 | 80 | 1009.4 |
| 20260509181851 | 30 | 57 | 4.8 | 8.0 | 0.00 | 0.00 | 0.00 | 80 | 1009.1 |
| 20260509181348 | 29 | 8 | 3.2 | 4.8 | 0.00 | 0.00 | 0.00 | 82 | 1009.7 |
| 20260509180845 | 28 | 327 | 3.2 | 4.8 | 0.00 | 0.00 | 0.00 | 84 | 1009.6 |
| 20260509180340 | 28 | 282 | 0.0 | 4.8 | 0.00 | 0.00 | 0.00 | 85 | 1009.7 |
| 20260509175838 | 28 | 55 | 4.8 | 8.0 | 0.00 | 0.00 | 0.00 | 84 | 1009.9 |
| 20260509175334 | 29 | 350 | 4.8 | 4.8 | 0.00 | 0.00 | 0.00 | 82 | 1009.9 |
| 20260509174830 | 30 | 233 | 3.2 | 8.0 | 0.00 | 0.00 | 0.00 | 82 | 1010.0 |
| 20260509174326 | 29 | 0 | 0.0 | 4.8 | 0.00 | 0.00 | 0.00 | 82 | 1009.9 |
| 20260509173822 | 29 | 81 | 0.0 | 4.8 | 0.00 | 0.00 | 0.00 | 83 | 1010.0 |
| 20260509173318 | 28 | 232 | 3.2 | 6.4 | 0.00 | 0.00 | 0.00 | 83 | 1010.1 |
| 20260509172814 | 28 | 253 | 4.8 | 9.7 | 0.00 | 0.00 | 0.00 | 85 | 1010.1 |
| 20260509172311 | 27 | 243 | 4.8 | 6.4 | 0.00 | 0.00 | 0.00 | 87 | 1010.3 |
| 20260509171806 | 27 | 300 | 0.0 | 4.8 | 0.00 | 0.00 | 0.00 | 87 | 1010.2 |
| 20260509171303 | 27 | 294 | 3.2 | 4.8 | 0.00 | 0.00 | 0.00 | 88 | 1010.2 |
| 20260509170759 | 27 | 202 | 4.8 | 6.4 | 0.00 | 0.00 | 0.00 | 88 | 1010.0 |
| 20260509170255 | 27 | 225 | 3.2 | 4.8 | 0.00 | 0.00 | 0.00 | 88 | 1010.3 |
| 20260509165754 | 27 | 109 | 3.2 | 3.2 | 0.00 | 0.00 | 0.00 | 89 | 1010.1 |
| 20260509165249 | 26 | 160 | 0.0 | 3.2 | 0.00 | 0.00 | 0.00 | 90 | 1010.1 |
| 20260509164746 | 26 | 174 | 1.6 | 6.4 | 0.00 | 0.00 | 0.00 | 91 | 1010.5 |
| 20260509164242 | 26 | 221 | 3.2 | 6.4 | 0.00 | 0.00 | 0.00 | 91 | 1010.4 |
| 20260509163744 | 26 | 220 | 3.2 | 4.8 | 0.00 | 0.00 | 0.00 | 92 | 1010.2 |
| 20260509163235 | 26 | 154 | 4.8 | 4.8 | 0.00 | 0.00 | 0.00 | 91 | 1010.2 |
| 20260509162734 | 26 | 241 | 3.2 | 4.8 | 0.00 | 0.00 | 0.00 | 90 | 1010.3 |
| 20260509162228 | 26 | 157 | 0.0 | 3.2 | 0.00 | 0.00 | 0.00 | 91 | 1010.1 |
| 20260509161724 | 26 | 106 | 0.0 | 1.6 | 0.00 | 0.00 | 0.00 | 91 | 1010.0 |
| 20260509161220 | 26 | 270 | 1.6 | 4.8 | 0.00 | 0.00 | 0.00 | 92 | 1010.0 |
| 20260509160715 | 26 | 243 | 3.2 | 4.8 | 0.00 | 0.00 | 0.00 | 91 | 1010.2 |
| 20260509160212 | 26 | 82 | 1.6 | 3.2 | 0.00 | 0.00 | 0.00 | 91 | 1010.1 |
| 20260509155707 | 26 | 243 | 0.0 | 4.8 | 0.00 | 0.00 | 0.00 | 92 | 1010.2 |
| 20260509155204 | 26 | 212 | 4.8 | 8.0 | 0.00 | 0.00 | 0.00 | 92 | 1010.2 |
| 20260509154700 | 26 | 0 | 0.0 | 3.2 | 0.00 | 0.00 | 0.00 | 91 | 1010.1 |
| 20260509154157 | 26 | 352 | 0.0 | 4.8 | 0.00 | 0.00 | 0.00 | 92 | 1010.3 |
| 20260509153654 | 26 | 96 | 3.2 | 3.2 | 0.00 | 0.00 | 0.00 | 93 | 1010.4 |
| 20260509153151 | 25 | 221 | 6.4 | 6.4 | 0.00 | 0.00 | 0.00 | 92 | 1010.2 |
| 20260509152646 | 25 | 326 | 0.0 | 8.0 | 0.00 | 0.00 | 0.00 | 94 | 1010.2 |
| 20260509152144 | 25 | 312 | 3.2 | 9.7 | 0.00 | 0.00 | 0.00 | 93 | 1009.8 |
| 20260509151640 | 25 | 184 | 3.2 | 9.7 | 0.00 | 0.00 | 0.00 | 95 | 1009.6 |
| 20260509151137 | 25 | 200 | 4.8 | 12.9 | 0.00 | 0.00 | 0.00 | 97 | 1009.5 |
| 20260509150636 | 24 | 221 | 20.9 | 32.2 | 0.00 | 0.00 | 0.00 | 96 | 1009.2 |
| 20260509150133 | 24 | 173 | 9.7 | 29.0 | 0.00 | 0.00 | 0.00 | 97 | 1009.2 |
| 20260509145629 | 24 | 236 | 4.8 | 32.2 | 0.00 | 0.00 | 0.00 | 97 | 1009.0 |
| 20260509145125 | 24 | 212 | 8.0 | 25.7 | 0.00 | 0.00 | 0.00 | 97 | 1009.4 |
| 20260509144621 | 25 | 196 | 3.2 | 14.5 | 0.00 | 0.00 | 0.00 | 96 | 1009.6 |
| 20260509144119 | 24 | 220 | 12.9 | 20.9 | 0.00 | 0.00 | 0.00 | 96 | 1009.3 |
| 20260509143616 | 24 | 212 | 8.0 | 20.9 | 0.00 | 0.00 | 0.00 | 96 | 1009.3 |
| 20260509143114 | 24 | 214 | 8.0 | 19.3 | 0.00 | 0.00 | 0.00 | 97 | 1009.4 |
| 20260509142608 | 24 | 223 | 9.7 | 19.3 | 0.00 | 0.00 | 0.00 | 97 | 1009.4 |
| 20260509142105 | 24 | 164 | 4.8 | 9.7 | 0.00 | 0.00 | 0.00 | 97 | 1009.4 |
| 20260509141601 | 24 | 231 | 4.8 | 12.9 | 0.00 | 0.00 | 0.00 | 99 | 1009.6 |
| 20260509141058 | 23 | 235 | 12.9 | 12.9 | 0.00 | 0.00 | 0.00 | 99 | 1009.7 |
| 20260509140555 | 23 | 176 | 3.2 | 12.9 | 0.00 | 0.00 | 0.00 | 99 | 1009.7 |
| 20260509140053 | 23 | 166 | 6.4 | 14.5 | 0.00 | 0.00 | 0.00 | 99 | 1009.8 |
| 20260509135550 | 23 | 228 | 8.0 | 9.7 | 0.00 | 0.00 | 0.00 | 99 | 1009.7 |
| 20260509135047 | 23 | 240 | 4.8 | 9.7 | 0.00 | 0.00 | 0.00 | 99 | 1009.9 |
| 20260509134544 | 23 | 237 | 6.4 | 8.0 | 0.00 | 0.00 | 0.00 | 99 | 1009.7 |
| 20260509134042 | 23 | 233 | 6.4 | 8.0 | 0.00 | 0.00 | 0.00 | 99 | 1009.7 |
| 20260509133538 | 23 | 229 | 4.8 | 8.0 | 0.00 | 0.00 | 0.00 | 99 | 1009.8 |
| 20260509133036 | 22 | 225 | 3.2 | 8.0 | 0.00 | 0.00 | 0.00 | 99 | 1009.8 |
| 20260509132534 | 22 | 135 | 3.2 | 8.0 | 0.00 | 0.00 | 0.00 | 99 | 1010.0 |
| 20260509132032 | 22 | 148 | 3.2 | 8.0 | 0.00 | 0.00 | 0.00 | 99 | 1009.9 |
| 20260509131528 | 22 | 206 | 4.8 | 8.0 | 0.00 | 0.00 | 0.00 | 99 | 1010.0 |
| 20260509131025 | 22 | 228 | 6.4 | 6.4 | 0.00 | 0.00 | 0.00 | 99 | 1009.6 |
| 20260509130520 | 22 | 120 | 0.0 | 1.6 | 0.00 | 0.00 | 0.00 | 99 | 1009.8 |
| 20260509130018 | 22 | 117 | 4.8 | 4.8 | 0.00 | 0.00 | 0.00 | 99 | 1009.4 |
| 20260509125514 | 22 | 149 | 6.4 | 9.7 | 0.00 | 0.00 | 0.00 | 99 | 1009.5 |
| 20260509125010 | 22 | 120 | 3.2 | 4.8 | 0.00 | 0.00 | 0.00 | 99 | 1009.4 |
| 20260509124507 | 22 | 140 | 0.0 | 3.2 | 0.00 | 0.00 | 0.00 | 99 | 1009.4 |
| 20260509124004 | 22 | 251 | 1.6 | 8.0 | 0.00 | 0.00 | 0.00 | 99 | 1009.4 |
| 20260509123502 | 22 | 254 | 0.0 | 3.2 | 0.00 | 0.00 | 0.00 | 99 | 1009.5 |
| 20260509122957 | 22 | 145 | 0.0 | 3.2 | 0.00 | 0.00 | 0.00 | 99 | 1009.3 |
| 20260509122455 | 22 | 103 | 1.6 | 3.2 | 0.00 | 0.00 | 0.00 | 99 | 1009.6 |
| 20260509121951 | 22 | 74 | 0.0 | 1.6 | 0.00 | 0.00 | 0.00 | 99 | 1009.7 |
| 20260509121448 | 22 | 66 | 3.2 | 3.2 | 0.00 | 0.00 | 0.00 | 99 | 1009.5 |
| 20260509120946 | 22 | 54 | 0.0 | 3.2 | 0.00 | 0.00 | 0.00 | 99 | 1009.7 |
| 20260509120444 | 22 | 6 | 1.6 | 3.2 | 0.00 | 0.00 | 0.00 | 99 | 1009.7 |
| 20260509115942 | 22 | 56 | 3.2 | 3.2 | 0.00 | 0.00 | 0.00 | 99 | 1009.2 |
| 20260509115439 | 22 | 229 | 0.0 | 0.0 | 0.00 | 0.00 | 0.00 | 99 | 1009.4 |
| 20260509114936 | 22 | 194 | 1.6 | 3.2 | 0.00 | 0.00 | 0.00 | 99 | 1009.5 |
| 20260509114435 | 22 | 337 | 0.0 | 4.8 | 0.00 | 0.00 | 0.00 | 99 | 1009.5 |
| 20260509113934 | 22 | 248 | 3.2 | 4.8 | 0.00 | 0.00 | 0.00 | 99 | 1009.6 |
| 20260509113431 | 22 | 206 | 1.6 | 3.2 | 0.00 | 0.00 | 0.00 | 99 | 1009.4 |
| 20260509112927 | 22 | 29 | 0.0 | 3.2 | 0.00 | 0.00 | 0.00 | 99 | 1010.0 |
| 20260509112425 | 22 | 0 | 0.0 | 3.2 | 0.00 | 0.00 | 0.00 | 99 | 1010.2 |
| 20260509111921 | 22 | 270 | 0.0 | 3.2 | 0.00 | 0.00 | 0.00 | 99 | 1010.4 |
| 20260509111419 | 22 | 180 | 0.0 | 0.0 | 0.00 | 0.00 | 0.00 | 99 | 1010.5 |
| 20260509110916 | 22 | 352 | 0.0 | 4.8 | 0.00 | 0.00 | 0.00 | 99 | 1010.3 |
| 20260509110412 | 22 | 20 | 4.8 | 4.8 | 0.00 | 0.00 | 0.00 | 99 | 1010.2 |
| 20260509105910 | 22 | 12 | 1.6 | 1.6 | 0.00 | 0.00 | 0.00 | 99 | 1009.9 |
| 20260509105408 | 22 | 270 | 0.0 | 3.2 | 0.00 | 0.00 | 0.00 | 99 | 1010.1 |
| 20260509104905 | 22 | 257 | 0.0 | 1.6 | 0.00 | 0.00 | 0.00 | 99 | 1010.3 |
| 20260509104402 | 22 | 15 | 3.2 | 3.2 | 0.00 | 0.00 | 0.00 | 99 | 1010.4 |
| 20260509103859 | 22 | 352 | 3.2 | 3.2 | 0.00 | 0.00 | 0.00 | 99 | 1010.4 |
| 20260509103356 | 22 | 209 | 0.0 | 0.0 | 0.00 | 0.00 | 0.00 | 99 | 1009.9 |
| 20260509102855 | 22 | 240 | 0.0 | 1.6 | 0.00 | 0.00 | 0.00 | 99 | 1009.7 |
| 20260509102352 | 22 | 0 | 0.0 | 1.6 | 0.00 | 0.00 | 0.00 | 99 | 1009.6 |
| 20260509101847 | 22 | 54 | 1.6 | 3.2 | 0.00 | 0.00 | 0.00 | 99 | 1009.7 |
| 20260509101344 | 22 | 32 | 3.2 | 3.2 | 0.00 | 0.00 | 0.00 | 99 | 1009.3 |
| 20260509100842 | 22 | 210 | 3.2 | 6.4 | 0.00 | 0.00 | 0.00 | 99 | 1009.7 |
| 20260509100339 | 22 | 216 | 0.0 | 4.8 | 0.00 | 0.00 | 0.00 | 99 | 1009.5 |
| 20260509095836 | 22 | 66 | 0.0 | 0.0 | 0.00 | 0.00 | 0.00 | 99 | 1009.7 |
| 20260509095333 | 22 | 54 | 1.6 | 6.4 | 0.00 | 0.00 | 0.00 | 99 | 1009.8 |
| 20260509094830 | 22 | 12 | 3.2 | 4.8 | 0.00 | 0.00 | 0.00 | 99 | 1009.8 |
| 20260509094326 | 22 | 26 | 1.6 | 4.8 | 0.00 | 0.00 | 0.00 | 99 | 1009.6 |
| 20260509093824 | 22 | 63 | 0.0 | 4.8 | 0.00 | 0.00 | 0.00 | 99 | 1009.6 |
| 20260509093321 | 22 | 26 | 0.0 | 1.6 | 0.00 | 0.00 | 0.00 | 99 | 1009.2 |
| 20260509092820 | 22 | 75 | 1.6 | 3.2 | 0.00 | 0.00 | 0.00 | 99 | 1009.4 |
| 20260509092317 | 22 | 81 | 0.0 | 1.6 | 0.00 | 0.00 | 0.00 | 99 | 1009.4 |
| 20260509091815 | 22 | 18 | 0.0 | 4.8 | 0.00 | 0.00 | 0.00 | 99 | 1009.0 |
| 20260509091311 | 22 | 60 | 0.0 | 3.2 | 0.00 | 0.00 | 0.00 | 99 | 1009.1 |
| 20260509090809 | 22 | 90 | 0.0 | 3.2 | 0.00 | 0.00 | 0.00 | 99 | 1009.0 |
| 20260509090306 | 22 | 8 | 0.0 | 3.2 | 0.00 | 0.00 | 0.00 | 99 | 1009.2 |
| 20260509085803 | 22 | 26 | 1.6 | 4.8 | 0.00 | 0.00 | 0.00 | 99 | 1009.2 |
| 20260509085301 | 22 | 29 | 3.2 | 4.8 | 0.00 | 0.00 | 0.00 | 99 | 1009.4 |
| 20260509084757 | 22 | 29 | 0.0 | 3.2 | 0.00 | 0.00 | 0.00 | 99 | 1009.6 |
| 20260509084254 | 22 | 65 | 3.2 | 3.2 | 0.00 | 0.00 | 0.00 | 99 | 1009.6 |
| 20260509083752 | 22 | 15 | 1.6 | 1.6 | 0.00 | 0.00 | 0.00 | 99 | 1009.2 |
| 20260509083248 | 22 | 90 | 0.0 | 1.6 | 0.00 | 0.00 | 0.00 | 99 | 1009.8 |
| 20260509082745 | 22 | 60 | 0.0 | 1.6 | 0.00 | 0.00 | 0.00 | 99 | 1009.5 |
| 20260509082241 | 22 | 90 | 0.0 | 3.2 | 0.00 | 0.00 | 0.00 | 99 | 1009.5 |
| 20260509081738 | 22 | 66 | 4.8 | 4.8 | 0.00 | 0.00 | 0.00 | 99 | 1009.5 |
| 20260509081236 | 22 | 156 | 0.0 | 0.0 | 0.00 | 0.00 | 0.00 | 99 | 1009.6 |
| 20260509080734 | 22 | 156 | 0.0 | 4.8 | 0.00 | 0.00 | 0.00 | 99 | 1009.5 |
| 20260509080231 | 22 | 219 | 4.8 | 4.8 | 0.00 | 0.00 | 0.00 | 99 | 1009.7 |
| 20260509075729 | 22 | 221 | 6.4 | 6.4 | 0.00 | 0.00 | 0.00 | 99 | 1009.6 |
| 20260509075227 | 22 | 180 | 0.0 | 4.8 | 0.00 | 0.00 | 0.00 | 99 | 1009.6 |
| 20260509074723 | 22 | 210 | 3.2 | 3.2 | 0.00 | 0.00 | 0.00 | 99 | 1009.6 |
| 20260509074221 | 22 | 261 | 0.0 | 3.2 | 0.00 | 0.00 | 0.00 | 99 | 1009.8 |
| 20260509073717 | 22 | 60 | 0.0 | 0.0 | 0.00 | 0.00 | 0.00 | 99 | 1010.0 |
| 20260509073214 | 22 | 74 | 1.6 | 1.6 | 0.00 | 0.00 | 0.00 | 99 | 1009.7 |
| 20260509072710 | 22 | 81 | 0.0 | 3.2 | 0.00 | 0.00 | 0.00 | 99 | 1010.0 |
| 20260509072207 | 22 | 73 | 0.0 | 3.2 | 0.00 | 0.00 | 0.00 | 99 | 1009.9 |
| 20260509071704 | 22 | 114 | 0.0 | 3.2 | 0.00 | 0.00 | 0.00 | 99 | 1009.7 |
| 20260509071201 | 22 | 246 | 0.0 | 0.0 | 0.00 | 0.00 | 0.00 | 99 | 1009.9 |
| 20260509070658 | 22 | 148 | 0.0 | 0.0 | 0.00 | 0.00 | 0.00 | 99 | 1010.0 |
| 20260509070154 | 22 | 203 | 0.0 | 4.8 | 0.00 | 0.00 | 0.00 | 99 | 1010.1 |
| 20260509065650 | 22 | 236 | 0.0 | 4.8 | 0.00 | 0.00 | 0.00 | 99 | 1009.9 |
| 20260509065147 | 22 | 212 | 3.2 | 6.4 | 0.00 | 0.00 | 0.00 | 99 | 1009.7 |
| 20260509064643 | 22 | 121 | 3.2 | 8.0 | 0.00 | 0.00 | 0.00 | 99 | 1009.3 |
| 20260509064141 | 22 | 90 | 0.0 | 3.2 | 0.00 | 0.00 | 0.00 | 99 | 1009.5 |
| 20260509063638 | 22 | 157 | 1.6 | 4.8 | 0.00 | 0.00 | 0.00 | 99 | 1009.5 |
| 20260509063134 | 22 | 254 | 0.0 | 4.8 | 0.00 | 0.00 | 0.00 | 99 | 1009.8 |
| 20260509062632 | 22 | 200 | 0.0 | 3.2 | 0.00 | 0.00 | 0.00 | 99 | 1009.7 |
| 20260509062129 | 22 | 166 | 0.0 | 6.4 | 0.00 | 0.00 | 0.00 | 99 | 1009.8 |
| 20260509061626 | 22 | 99 | 0.0 | 8.0 | 0.00 | 0.00 | 0.00 | 99 | 1009.5 |
| 20260509061123 | 22 | 74 | 0.0 | 3.2 | 0.00 | 0.00 | 0.00 | 99 | 1009.7 |
| 20260509060620 | 22 | 196 | 3.2 | 4.8 | 0.00 | 0.00 | 0.00 | 99 | 1009.4 |
| 20260509060110 | 22 | 147 | 4.8 | 9.7 | 0.00 | 0.00 | 0.00 | 99 | 1009.5 |
| 20260509055606 | 22 | 155 | 11.3 | 12.9 | 0.00 | 0.00 | 0.00 | 99 | 1009.5 |
| 20260509055102 | 22 | 147 | 4.8 | 8.0 | 0.00 | 0.00 | 0.00 | 99 | 1009.7 |
| 20260509054559 | 22 | 157 | 4.8 | 6.4 | 0.00 | 0.00 | 0.00 | 99 | 1009.6 |
| 20260509054057 | 22 | 147 | 0.0 | 4.8 | 0.00 | 0.00 | 0.00 | 99 | 1009.4 |
| 20260509053555 | 22 | 203 | 0.0 | 8.0 | 0.00 | 0.00 | 0.00 | 99 | 1009.5 |
| 20260509053052 | 22 | 241 | 3.2 | 6.4 | 0.00 | 0.00 | 0.00 | 99 | 1009.3 |
| 20260509052550 | 22 | 120 | 3.2 | 4.8 | 0.00 | 0.00 | 0.00 | 99 | 1009.5 |
| 20260509052048 | 22 | 294 | 3.2 | 6.4 | 0.00 | 0.00 | 0.00 | 99 | 1009.5 |
| 20260509051545 | 22 | 147 | 4.8 | 6.4 | 0.00 | 0.00 | 0.00 | 99 | 1009.2 |
| 20260509051042 | 22 | 172 | 0.0 | 6.4 | 0.00 | 0.00 | 0.00 | 99 | 1009.3 |
| 20260509050539 | 22 | 135 | 3.2 | 8.0 | 0.00 | 0.00 | 0.00 | 99 | 1009.4 |
| 20260509050035 | 22 | 204 | 0.0 | 8.0 | 0.00 | 0.00 | 0.00 | 99 | 1009.5 |
| 20260509045533 | 22 | 90 | 4.8 | 8.0 | 0.00 | 0.00 | 0.00 | 99 | 1009.5 |
| 20260509045030 | 22 | 211 | 4.8 | 12.9 | 0.00 | 0.00 | 0.00 | 99 | 1009.3 |
| 20260509044527 | 22 | 212 | 3.2 | 8.0 | 0.00 | 0.00 | 0.00 | 99 | 1009.3 |
| 20260509044024 | 22 | 246 | 4.8 | 20.9 | 0.00 | 0.00 | 0.00 | 99 | 1009.1 |
| 20260509043521 | 22 | 166 | 4.8 | 9.7 | 0.00 | 0.00 | 0.00 | 99 | 1009.6 |
| 20260509043016 | 22 | 144 | 4.8 | 14.5 | 0.00 | 0.00 | 0.00 | 98 | 1009.5 |
| 20260509042513 | 23 | 152 | 6.4 | 20.9 | 0.00 | 0.00 | 0.00 | 98 | 1009.4 |
| 20260509042009 | 23 | 96 | 0.0 | 8.0 | 0.00 | 0.00 | 0.00 | 98 | 1009.3 |
| 20260509041506 | 23 | 204 | 3.2 | 9.7 | 0.00 | 0.00 | 0.00 | 98 | 1009.3 |
| 20260509041004 | 23 | 213 | 3.2 | 11.3 | 0.00 | 0.00 | 0.00 | 98 | 1009.1 |
| 20260509040501 | 23 | 154 | 9.7 | 12.9 | 0.00 | 0.00 | 0.00 | 97 | 1009.1 |
| 20260509035958 | 23 | 114 | 1.6 | 9.7 | 0.00 | 0.00 | 0.00 | 97 | 1008.8 |
| 20260509035455 | 23 | 225 | 4.8 | 12.9 | 0.00 | 0.00 | 0.00 | 97 | 1009.1 |
| 20260509034951 | 23 | 82 | 0.0 | 14.5 | 0.00 | 0.00 | 0.00 | 97 | 1009.1 |
| 20260509034449 | 23 | 148 | 0.0 | 16.1 | 0.00 | 0.00 | 0.00 | 97 | 1009.0 |
| 20260509033946 | 23 | 165 | 1.6 | 9.7 | 0.00 | 0.00 | 0.00 | 96 | 1009.1 |
| 20260509033443 | 23 | 206 | 6.4 | 14.5 | 0.00 | 0.00 | 0.00 | 96 | 1009.1 |
| 20260509032940 | 23 | 106 | 4.8 | 11.3 | 0.00 | 0.00 | 0.00 | 96 | 1009.2 |
| 20260509032437 | 23 | 254 | 1.6 | 9.7 | 0.00 | 0.00 | 0.00 | 96 | 1009.2 |
| 20260509031935 | 23 | 135 | 8.0 | 8.0 | 0.00 | 0.00 | 0.00 | 96 | 1009.0 |
| 20260509031432 | 23 | 108 | 4.8 | 6.4 | 0.00 | 0.00 | 0.00 | 96 | 1009.1 |
| 20260509030929 | 23 | 100 | 3.2 | 9.7 | 0.00 | 0.00 | 0.00 | 96 | 1009.1 |
| 20260509030427 | 23 | 143 | 3.2 | 6.4 | 0.00 | 0.00 | 0.00 | 96 | 1008.9 |
| 20260509025924 | 23 | 109 | 0.0 | 6.4 | 0.00 | 0.00 | 0.00 | 96 | 1008.8 |
| 20260509025420 | 23 | 81 | 4.8 | 6.4 | 0.00 | 0.00 | 0.00 | 96 | 1008.9 |
| 20260509024915 | 23 | 107 | 3.2 | 6.4 | 0.00 | 0.00 | 0.00 | 96 | 1008.9 |
| 20260509024411 | 23 | 90 | 0.0 | 6.4 | 0.00 | 0.00 | 0.00 | 95 | 1008.8 |
| 20260509023909 | 23 | 94 | 0.0 | 4.8 | 0.00 | 0.00 | 0.00 | 95 | 1008.9 |
| 20260509023406 | 23 | 90 | 0.0 | 1.6 | 0.00 | 0.00 | 0.00 | 95 | 1008.8 |
| 20260509022902 | 23 | 106 | 0.0 | 4.8 | 0.00 | 0.00 | 0.00 | 95 | 1008.9 |
| 20260509022359 | 23 | 203 | 0.0 | 1.6 | 0.00 | 0.00 | 0.00 | 96 | 1008.7 |
| 20260509021856 | 23 | 73 | 0.0 | 0.0 | 0.00 | 0.00 | 0.00 | 95 | 1008.6 |
| 20260509021353 | 23 | 73 | 0.0 | 0.0 | 0.00 | 0.00 | 0.00 | 95 | 1008.5 |
| 20260509020851 | 23 | 73 | 0.0 | 3.2 | 0.00 | 0.00 | 0.00 | 95 | 1008.6 |
| 20260509020349 | 23 | 90 | 1.6 | 3.2 | 0.00 | 0.00 | 0.00 | 95 | 1008.3 |
| 20260509015846 | 23 | 90 | 0.0 | 3.2 | 0.00 | 0.00 | 0.00 | 95 | 1008.3 |
| 20260509015344 | 23 | 83 | 1.6 | 3.2 | 0.00 | 0.00 | 0.00 | 95 | 1008.4 |
| 20260509014840 | 23 | 82 | 1.6 | 1.6 | 0.00 | 0.00 | 0.00 | 94 | 1008.5 |
| 20260509014337 | 23 | 66 | 0.0 | 1.6 | 0.00 | 0.00 | 0.00 | 94 | 1008.5 |
| 20260509013834 | 23 | 90 | 0.0 | 0.0 | 0.00 | 0.00 | 0.00 | 94 | 1008.3 |
| 20260509013331 | 23 | 66 | 0.0 | 0.0 | 0.00 | 0.00 | 0.00 | 93 | 1008.2 |
| 20260509012827 | 24 | 83 | 1.6 | 1.6 | 0.00 | 0.00 | 0.00 | 93 | 1008.3 |
| 20260509012323 | 24 | 74 | 0.0 | 1.6 | 0.00 | 0.00 | 0.00 | 93 | 1008.2 |
| 20260509011821 | 24 | 54 | 1.6 | 3.2 | 0.00 | 0.00 | 0.00 | 93 | 1008.2 |
| 20260509011318 | 24 | 23 | 1.6 | 3.2 | 0.00 | 0.00 | 0.00 | 92 | 1008.3 |
| 20260509010816 | 24 | 69 | 0.0 | 3.2 | 0.00 | 0.00 | 0.00 | 92 | 1008.3 |
| 20260509010313 | 24 | 90 | 1.6 | 3.2 | 0.00 | 0.00 | 0.00 | 92 | 1008.3 |
| 20260509005810 | 25 | 99 | 0.0 | 1.6 | 0.00 | 0.00 | 0.00 | 92 | 1008.4 |
| 20260509005308 | 25 | 105 | 0.0 | 6.4 | 0.00 | 0.00 | 0.00 | 91 | 1008.1 |
| 20260509004802 | 25 | 90 | 0.0 | 0.0 | 0.00 | 0.00 | 0.00 | 91 | 1008.3 |
| 20260509004259 | 25 | 82 | 0.0 | 3.2 | 0.00 | 0.00 | 0.00 | 91 | 1008.1 |
| 20260509003757 | 25 | 90 | 0.0 | 3.2 | 0.00 | 0.00 | 0.00 | 91 | 1008.3 |
| 20260509003254 | 25 | 90 | 0.0 | 3.2 | 0.00 | 0.00 | 0.00 | 91 | 1008.3 |
| 20260509002751 | 25 | 54 | 0.0 | 3.2 | 0.00 | 0.00 | 0.00 | 90 | 1008.2 |
| 20260509002249 | 25 | 66 | 0.0 | 6.4 | 0.00 | 0.00 | 0.00 | 90 | 1008.1 |
| 20260509001746 | 25 | 270 | 0.0 | 6.4 | 0.00 | 0.00 | 0.00 | 90 | 1008.2 |
| 20260509001242 | 25 | 78 | 3.2 | 3.2 | 0.00 | 0.00 | 0.00 | 90 | 1008.2 |
| 20260509000740 | 25 | 99 | 0.0 | 4.8 | 0.00 | 0.00 | 0.00 | 90 | 1008.5 |
| 20260509000237 | 25 | 90 | 1.6 | 4.8 | 0.00 | 0.00 | 0.00 | 90 | 1008.2 |
| 20260508235734 | 25 | 151 | 0.0 | 3.2 | 0.00 | 0.00 | 0.00 | 89 | 1008.2 |
| 20260508235230 | 25 | 106 | 0.0 | 3.2 | 0.00 | 0.00 | 0.00 | 89 | 1007.9 |
| 20260508234728 | 25 | 103 | 0.0 | 6.4 | 0.00 | 0.00 | 0.00 | 89 | 1008.2 |
| 20260508234224 | 25 | 112 | 3.2 | 4.8 | 0.00 | 0.00 | 0.00 | 88 | 1008.3 |
| 20260508233718 | 25 | 180 | 1.6 | 6.4 | 0.00 | 0.00 | 0.00 | 88 | 1008.2 |
| 20260508233216 | 25 | 77 | 3.2 | 8.0 | 0.00 | 0.00 | 0.00 | 88 | 1008.1 |
| 20260508232713 | 26 | 127 | 4.8 | 6.4 | 0.00 | 0.00 | 0.00 | 87 | 1007.9 |
| 20260508232209 | 26 | 90 | 1.6 | 11.3 | 0.00 | 0.00 | 0.00 | 87 | 1008.0 |
| 20260508231707 | 26 | 83 | 0.0 | 9.7 | 0.00 | 0.00 | 0.00 | 87 | 1007.8 |
| 20260508231203 | 26 | 114 | 0.0 | 4.8 | 0.00 | 0.00 | 0.00 | 87 | 1008.0 |
| 20260508230700 | 26 | 159 | 0.0 | 8.0 | 0.00 | 0.00 | 0.00 | 87 | 1008.1 |
| 20260508230156 | 26 | 157 | 1.6 | 8.0 | 0.00 | 0.00 | 0.00 | 87 | 1008.0 |
| 20260508225655 | 26 | 145 | 6.4 | 9.7 | 0.00 | 0.00 | 0.00 | 86 | 1008.0 |
| 20260508225150 | 26 | 90 | 3.2 | 8.0 | 0.00 | 0.00 | 0.00 | 87 | 1008.2 |
| 20260508224648 | 26 | 150 | 3.2 | 4.8 | 0.00 | 0.00 | 0.00 | 87 | 1008.0 |
| 20260508224146 | 26 | 120 | 1.6 | 8.0 | 0.00 | 0.00 | 0.00 | 88 | 1008.2 |
| 20260508223643 | 25 | 147 | 0.0 | 11.3 | 0.00 | 0.00 | 0.00 | 87 | 1008.4 |
| 20260508223141 | 26 | 155 | 4.8 | 11.3 | 0.00 | 0.00 | 0.00 | 87 | 1008.4 |
| 20260508222638 | 26 | 180 | 0.0 | 8.0 | 0.00 | 0.00 | 0.00 | 86 | 1008.3 |
| 20260508222134 | 26 | 164 | 3.2 | 9.7 | 0.00 | 0.00 | 0.00 | 87 | 1008.0 |
| 20260508221631 | 26 | 86 | 0.0 | 8.0 | 0.00 | 0.00 | 0.00 | 86 | 1007.8 |
| 20260508221126 | 25 | 144 | 3.2 | 4.8 | 0.00 | 0.00 | 0.00 | 86 | 1008.2 |
| 20260508220623 | 25 | 151 | 1.6 | 8.0 | 0.00 | 0.00 | 0.00 | 86 | 1008.5 |
| 20260508220120 | 26 | 36 | 0.0 | 8.0 | 0.00 | 0.00 | 0.00 | 86 | 1008.4 |
| 20260508215617 | 26 | 115 | 3.2 | 4.8 | 0.00 | 0.00 | 0.00 | 85 | 1008.4 |
| 20260508215113 | 26 | 63 | 1.6 | 6.4 | 0.00 | 0.00 | 0.00 | 85 | 1008.3 |
| 20260508214611 | 26 | 206 | 0.0 | 3.2 | 0.00 | 0.00 | 0.00 | 86 | 1008.3 |
| 20260508214107 | 26 | 126 | 0.0 | 4.8 | 0.00 | 0.00 | 0.00 | 86 | 1008.5 |
| 20260508213604 | 26 | 132 | 3.2 | 6.4 | 0.00 | 0.00 | 0.00 | 83 | 1008.4 |
| 20260508213100 | 26 | 32 | 0.0 | 6.4 | 0.00 | 0.00 | 0.00 | 83 | 1008.7 |
| 20260508212557 | 26 | 180 | 0.0 | 4.8 | 0.00 | 0.00 | 0.00 | 82 | 1008.8 |
| 20260508212053 | 27 | 154 | 0.0 | 6.4 | 0.00 | 0.00 | 0.00 | 81 | 1008.7 |
| 20260508211548 | 26 | 23 | 1.6 | 6.4 | 0.00 | 0.00 | 0.00 | 83 | 1008.8 |
| 20260508211045 | 26 | 74 | 0.0 | 3.2 | 0.00 | 0.00 | 0.00 | 83 | 1008.8 |
| 20260508210542 | 26 | 246 | 0.0 | 3.2 | 0.00 | 0.00 | 0.00 | 82 | 1008.9 |
| 20260508210040 | 26 | 220 | 3.2 | 6.4 | 0.00 | 0.00 | 0.00 | 85 | 1009.1 |
| 20260508205536 | 26 | 245 | 0.0 | 4.8 | 0.00 | 0.00 | 0.00 | 84 | 1009.0 |
| 20260508205033 | 26 | 153 | 6.4 | 8.0 | 0.00 | 0.00 | 0.00 | 83 | 1009.2 |
| 20260508204529 | 27 | 120 | 0.0 | 3.2 | 0.00 | 0.00 | 0.00 | 82 | 1009.2 |
| 20260508204025 | 26 | 78 | 4.8 | 4.8 | 0.00 | 0.00 | 0.00 | 83 | 1009.3 |
| 20260508203521 | 26 | 110 | 3.2 | 4.8 | 0.00 | 0.00 | 0.00 | 84 | 1009.4 |
| 20260508203018 | 25 | 195 | 1.6 | 6.4 | 0.00 | 0.00 | 0.00 | 85 | 1009.3 |
| 20260508202515 | 25 | 98 | 1.6 | 8.0 | 0.00 | 0.00 | 0.00 | 84 | 1009.4 |